Terminal Aerodrome Forecast
Issued by NWS Charleston, WV

Current Version | Previous Version | Graphics & Text | Print | Product List | Glossary On
Versions: 1 2 3 4 5 6 7 8 9 10 11 12 13 14 15 16 17 18 19 20 21 22 23 24 25 26 27 28 29
000
FTUS41 KRLX 032357
TAFPKB
TAF
KPKB 032357Z 0400/0424 35002KT 4SM SHRA BR OVC015
     FM040200 01002KT 4SM BR BKN010
     FM040700 03002KT 1SM BR OVC003
     FM041200 00000KT 3SM BR OVC006
     FM041400 36003KT 6SM BR BKN015
     FM041500 33002KT P6SM BKN025
     FM041700 32004KT P6SM SCT035
     FM042100 31005KT P6SM SCT130=

USA.gov is the U.S. government's official web portal to all federal, state and local government web resources and services.